Time;durP1;ratioP1;P1;durP2;ratioP2;P2;SDS_P1;SDS_P2;PMS_P1;PMS_P2;Temp;Humidity;BMP_temperature;BMP_pressure;BME280_temperature;BME280_humidity;BME280_pressure;Samples;Min_cycle;Max_cycle;Signal;HPM_P1;HPM_P2
2021/06/11 00:01:51;;;;;;;0.67;0.67;;;;;;;16.93;69.20;99196.22;5051893;28;42355;-75
2021/06/11 00:04:18;;;;;;;1.53;0.70;;;;;;;16.84;69.64;99190.66;5055069;28;39927;-75
2021/06/11 00:06:46;;;;;;;0.73;0.73;;;;;;;16.84;69.48;99197.81;5060296;28;41558;-73
2021/06/11 00:09:14;;;;;;;0.97;0.80;;;;;;;16.80;69.41;99205.28;5063362;28;43173;-76
2021/06/11 00:11:41;;;;;;;0.73;0.70;;;;;;;16.77;69.42;99205.53;5062832;28;43272;-75
2021/06/11 00:14:10;;;;;;;1.70;0.93;;;;;;;16.70;69.77;99198.97;5062231;28;40156;-76
2021/06/11 00:16:38;;;;;;;0.70;0.70;;;;;;;16.71;69.85;99208.69;5094053;28;43236;-73
2021/06/11 00:19:05;;;;;;;0.80;0.80;;;;;;;16.64;69.68;99196.81;5076358;28;42954;-73
2021/06/11 00:21:32;;;;;;;0.90;0.90;;;;;;;16.64;70.42;99196.81;5082293;28;42179;-74
2021/06/11 00:23:59;;;;;;;0.90;0.90;;;;;;;16.66;70.08;99202.88;5106308;28;39680;-75
2021/06/11 00:26:26;;;;;;;0.80;0.80;;;;;;;16.64;70.10;99204.81;5070811;28;41591;-75
2021/06/11 00:28:53;;;;;;;0.67;0.67;;;;;;;16.61;69.95;99210.38;5084579;28;42671;-74
2021/06/11 00:31:22;;;;;;;0.90;0.90;;;;;;;16.54;69.75;99203.84;5068866;28;42631;-76
2021/06/11 00:33:49;;;;;;;0.70;0.70;;;;;;;16.57;70.12;99214.28;5069219;28;41320;-75
2021/06/11 00:36:17;;;;;;;0.70;0.70;;;;;;;16.54;70.30;99211.88;5086376;28;40960;-76
2021/06/11 00:38:45;;;;;;;12.43;1.53;;;;;;;16.51;69.99;99206.75;5052509;28;42762;-73
2021/06/11 00:41:12;;;;;;;0.73;0.60;;;;;;;16.42;70.13;99200.34;5083009;28;41355;-73
2021/06/11 00:43:39;;;;;;;0.80;0.80;;;;;;;16.44;69.80;99203.72;5067792;28;40601;-78
2021/06/11 00:46:06;;;;;;;0.47;0.47;;;;;;;16.39;70.12;99195.25;5068577;28;41770;-77
2021/06/11 00:48:35;;;;;;;0.60;0.60;;;;;;;16.39;69.69;99197.06;5069565;28;43351;-76
2021/06/11 00:51:03;;;;;;;0.90;0.90;;;;;;;16.38;69.82;99192.69;5068874;28;42035;-79
2021/06/11 00:53:30;;;;;;;0.83;0.80;;;;;;;16.34;69.72;99197.44;5073215;28;39857;-76
2021/06/11 00:55:57;;;;;;;0.80;0.80;;;;;;;16.32;70.00;99198.56;5048598;28;41773;-77
2021/06/11 00:58:24;;;;;;;0.70;0.70;;;;;;;16.24;69.86;99192.94;5051031;28;42649;-75
2021/06/11 01:00:51;;;;;;;0.67;0.60;;;;;;;16.26;70.22;99199.88;5083581;28;41160;-76
2021/06/11 01:03:19;;;;;;;0.77;0.63;;;;;;;16.23;69.78;99197.44;5050075;28;39760;-76
2021/06/11 01:05:47;;;;;;;0.63;0.60;;;;;;;16.22;69.99;99193.06;5032470;28;40743;-76
2021/06/11 01:08:17;;;;;;;0.50;0.50;;;;;;;16.20;70.15;99207.53;5057759;28;43424;-75
2021/06/11 01:10:45;;;;;;;2.43;1.57;;;;;;;16.18;71.32;99194.31;5070899;28;42925;-75
2021/06/11 01:13:13;;;;;;;0.83;0.57;;;;;;;16.16;71.93;99199.78;5068548;28;39959;-76
2021/06/11 01:15:41;;;;;;;0.50;0.50;;;;;;;16.15;71.57;99203.41;5064706;28;42166;-76
2021/06/11 01:18:08;;;;;;;1.03;0.93;;;;;;;16.14;71.39;99193.69;5049733;28;42522;-79
2021/06/11 01:20:35;;;;;;;0.70;0.70;;;;;;;16.13;71.24;99202.69;5049519;28;42928;-76
2021/06/11 01:23:34;;;;;;;1.13;1.03;;;;;;;16.12;71.28;99195.63;5049764;28;40837;-77
2021/06/11 01:26:18;;;;;;;0.93;0.87;;;;;;;16.09;71.36;99198.53;5081727;28;42337;-77
2021/06/11 01:28:46;;;;;;;0.53;0.53;;;;;;;16.06;71.03;99193.47;5047753;28;42688;-76
2021/06/11 01:31:13;;;;;;;0.53;0.53;;;;;;;16.05;70.97;99194.44;5098163;28;42181;-76
2021/06/11 01:33:41;;;;;;;0.53;0.53;;;;;;;16.02;71.10;99196.50;5068341;28;39863;-74
2021/06/11 01:36:12;;;;;;;0.50;0.50;;;;;;;15.94;71.40;99189.09;5070418;28;42157;-73
2021/06/11 01:38:42;;;;;;;0.60;0.60;;;;;;;15.98;71.24;99200.38;5062720;28;43753;-77
2021/06/11 01:41:12;;;;;;;0.50;0.50;;;;;;;15.97;71.03;99207.53;5082049;28;40740;-77
2021/06/11 01:43:42;;;;;;;0.60;0.50;;;;;;;15.92;70.92;99201.72;5082051;28;38789;-75
2021/06/11 01:46:12;;;;;;;0.50;0.50;;;;;;;15.91;70.92;99205.34;5053390;28;41587;-78
2021/06/11 01:48:40;;;;;;;0.50;0.50;;;;;;;15.89;71.00;99207.28;5081671;28;42771;-79
2021/06/11 01:51:10;;;;;;;0.90;0.73;;;;;;;15.82;71.10;99203.41;5081913;28;41290;-77
2021/06/11 01:53:41;;;;;;;0.70;0.70;;;;;;;15.84;70.89;99209.47;5082187;28;40109;-74
2021/06/11 01:56:11;;;;;;;0.77;0.67;;;;;;;15.55;71.22;99163.69;5048374;28;41783;-77
2021/06/11 01:58:42;;;;;;;0.80;0.80;;;;;;;15.82;70.82;99205.25;5048739;28;42802;-78
2021/06/11 02:01:09;;;;;;;0.70;0.70;;;;;;;15.82;71.15;99208.75;5049646;28;42201;-78
2021/06/11 02:03:38;;;;;;;0.40;0.40;;;;;;;15.79;70.93;99206.31;5050300;28;39639;-74
2021/06/11 02:06:07;;;;;;;1.10;1.00;;;;;;;15.75;70.93;99204.84;5049995;28;41602;-74
2021/06/11 02:08:35;;;;;;;0.60;0.60;;;;;;;15.75;70.85;99204.84;5047911;28;42509;-78
2021/06/11 02:11:03;;;;;;;0.47;0.47;;;;;;;15.64;70.77;99195.00;5066546;28;43292;-75
2021/06/11 02:13:31;;;;;;;0.40;0.40;;;;;;;15.71;70.74;99206.06;5051170;28;40437;-77
2021/06/11 02:16:04;;;;;;;0.80;0.70;;;;;;;15.70;71.27;99207.06;5064827;28;41731;-76
2021/06/11 02:18:32;;;;;;;0.50;0.50;;;;;;;15.56;71.07;99183.25;5031140;28;41759;-74
2021/06/11 02:21:03;;;;;;;1.20;1.10;;;;;;;15.52;70.79;99179.06;5049501;28;42133;-81
2021/06/11 02:23:30;;;;;;;0.83;0.43;;;;;;;15.62;71.27;99199.63;5048002;28;40387;-76
2021/06/11 02:25:57;;;;;;;0.50;0.50;;;;;;;15.59;70.83;99194.50;5095040;28;40884;-75
2021/06/11 02:28:24;;;;;;;0.80;0.70;;;;;;;15.59;70.78;99199.00;5067445;28;42641;-77
2021/06/11 02:30:51;;;;;;;1.07;0.67;;;;;;;15.58;71.06;99200.00;5052688;28;42962;-75
2021/06/11 02:33:21;;;;;;;0.90;0.90;;;;;;;15.51;71.30;99198.72;5064740;28;39011;-79
2021/06/11 02:35:48;;;;;;;0.50;0.40;;;;;;;15.54;71.31;99203.81;5047992;28;41437;-75
2021/06/11 02:38:15;;;;;;;1.93;1.30;;;;;;;15.51;71.05;99212.91;5053311;28;42490;-75
2021/06/11 02:40:42;;;;;;;0.83;0.80;;;;;;;15.50;70.89;99210.34;5085237;28;41350;-81
2021/06/11 02:43:12;;;;;;;1.03;1.03;;;;;;;15.43;71.20;99200.16;5068942;28;40072;-80
2021/06/11 02:45:49;;;;;;;0.40;0.40;;;;;;;15.30;70.98;99183.41;5067435;28;42487;-76
2021/06/11 02:48:26;;;;;;;0.87;0.73;;;;;;;15.31;71.18;99185.09;5065241;28;43438;-79
2021/06/11 02:51:00;;;;;;;0.67;0.67;;;;;;;15.39;70.97;99198.69;5081948;28;42085;-78
2021/06/11 02:53:29;;;;;;;0.73;0.73;;;;;;;15.37;71.33;99205.97;5081667;28;40111;-79
2021/06/11 02:56:01;;;;;;;0.93;0.93;;;;;;;15.32;71.28;99197.47;5049015;28;41864;-78
2021/06/11 02:58:33;;;;;;;1.10;1.10;;;;;;;15.32;70.83;99197.47;5062466;28;42729;-75
2021/06/11 03:01:04;;;;;;;0.90;0.60;;;;;;;15.30;71.16;99198.56;5084617;28;41854;-77
2021/06/11 03:03:36;;;;;;;0.83;0.50;;;;;;;15.28;71.07;99198.66;5068025;28;40632;-78
2021/06/11 03:06:04;;;;;;;0.60;0.60;;;;;;;15.24;71.08;99199.84;5067989;28;41572;-75
2021/06/11 03:08:36;;;;;;;0.57;0.57;;;;;;;15.25;71.17;99203.38;5066032;28;42690;-79
2021/06/11 03:11:07;;;;;;;0.53;0.53;;;;;;;15.23;70.87;99206.16;5066837;28;42238;-77
2021/06/11 03:13:35;;;;;;;0.40;0.40;;;;;;;15.18;71.06;99195.00;5063486;28;40051;-74
2021/06/11 03:16:03;;;;;;;0.67;0.67;;;;;;;15.20;71.03;99202.91;5049433;28;42380;-78
2021/06/11 03:18:36;;;;;;;0.40;0.40;;;;;;;15.20;71.16;99213.56;5080249;28;43505;-77
2021/06/11 03:21:12;;;;;;;0.50;0.50;;;;;;;15.09;71.09;99185.84;5047777;28;42381;-78
2021/06/11 03:23:45;;;;;;;0.93;0.60;;;;;;;15.18;71.04;99200.34;5048423;28;40129;-75
2021/06/11 03:26:19;;;;;;;0.63;0.60;;;;;;;15.18;70.99;99204.81;5049180;28;41615;-75
2021/06/11 03:28:49;;;;;;;1.03;0.70;;;;;;;15.18;71.19;99207.50;5056513;28;43153;-80
2021/06/11 03:31:21;;;;;;;0.57;0.57;;;;;;;15.17;71.38;99209.31;5101095;28;42057;-76
2021/06/11 03:33:54;;;;;;;0.90;0.43;;;;;;;15.17;71.15;99217.31;5069190;28;39943;-78
2021/06/11 03:36:25;;;;;;;0.47;0.47;;;;;;;15.16;71.09;99215.59;5071136;28;41666;-78
2021/06/11 03:38:56;;;;;;;1.13;1.13;;;;;;;15.15;71.01;99213.91;5066639;28;42584;-73
2021/06/11 03:41:24;;;;;;;0.23;0.23;;;;;;;15.09;71.16;99201.00;5050470;28;42074;-79
2021/06/11 03:43:53;;;;;;;1.27;0.50;;;;;;;15.13;71.10;99213.16;5051795;28;39763;-74
2021/06/11 03:46:21;;;;;;;0.50;0.50;;;;;;;15.15;71.02;99211.25;5051428;28;41715;-80
2021/06/11 03:48:53;;;;;;;0.80;0.80;;;;;;;15.18;71.42;99211.00;5033989;28;42153;-79
2021/06/11 03:51:20;;;;;;;0.70;0.70;;;;;;;15.16;71.41;99209.41;5083990;28;41952;-73
2021/06/11 03:53:49;;;;;;;0.67;0.53;;;;;;;15.22;71.14;99212.47;5079941;28;39874;-74
2021/06/11 03:56:19;;;;;;;0.70;0.70;;;;;;;15.27;70.95;99218.31;5071227;28;41432;-75
2021/06/11 03:58:49;;;;;;;0.70;0.70;;;;;;;15.31;71.17;99217.13;5071930;28;42727;-75
2021/06/11 04:01:21;;;;;;;0.57;0.57;;;;;;;15.35;70.79;99199.88;5084504;28;41262;-80
2021/06/11 04:03:50;;;;;;;0.80;0.80;;;;;;;15.41;71.07;99207.44;5050256;28;39775;-79
2021/06/11 04:06:21;;;;;;;0.30;0.30;;;;;;;15.48;71.06;99206.94;5066777;28;40795;-74
2021/06/11 04:08:52;;;;;;;1.00;0.80;;;;;;;15.45;70.98;99187.53;5049935;28;43211;-77
2021/06/11 04:11:27;;;;;;;0.77;0.73;;;;;;;15.61;71.12;99202.41;5051798;28;42385;-76
2021/06/11 04:13:56;;;;;;;0.40;0.40;;;;;;;15.64;70.71;99207.50;5081719;28;38444;-73
2021/06/11 04:16:26;;;;;;;0.60;0.40;;;;;;;15.72;70.75;99205.09;5066593;28;41840;-79
2021/06/11 04:18:56;;;;;;;0.60;0.60;;;;;;;15.80;70.68;99208.03;5083626;28;42743;-76
2021/06/11 04:21:26;;;;;;;0.80;0.80;;;;;;;15.88;70.99;99208.25;5051131;28;42249;-79
2021/06/11 04:23:57;;;;;;;0.83;0.83;;;;;;;15.96;70.79;99208.50;5049449;28;39679;-75
2021/06/11 04:26:26;;;;;;;1.07;0.73;;;;;;;16.04;71.02;99206.09;5051829;28;41910;-79
2021/06/11 04:28:55;;;;;;;0.77;0.77;;;;;;;16.13;70.67;99208.03;5066535;28;42286;-78
2021/06/11 04:31:23;;;;;;;0.57;0.57;;;;;;;16.21;70.75;99202.06;5071033;28;42874;-77
2021/06/11 04:33:50;;;;;;;0.50;0.50;;;;;;;16.28;70.85;99197.09;5057922;28;40381;-75
2021/06/11 04:36:19;;;;;;;1.07;1.00;;;;;;;16.40;70.47;99198.78;5068855;28;41841;-78
2021/06/11 04:38:56;;;;;;;1.07;0.97;;;;;;;16.40;71.05;99183.59;5068865;28;41860;-78
2021/06/11 04:41:25;;;;;;;1.13;1.13;;;;;;;16.60;70.83;99200.66;5069120;28;42917;-74
2021/06/11 04:43:53;;;;;;;1.20;1.20;;;;;;;16.69;70.76;99202.59;5069135;28;41674;-76
2021/06/11 04:46:20;;;;;;;1.00;0.90;;;;;;;16.78;70.53;99196.53;5051339;28;41349;-78
2021/06/11 04:48:47;;;;;;;0.57;0.50;;;;;;;16.86;70.38;99196.72;5064570;28;42801;-77
2021/06/11 04:51:14;;;;;;;0.90;0.77;;;;;;;16.97;70.28;99203.00;5049345;28;43057;-77
2021/06/11 04:53:43;;;;;;;0.67;0.67;;;;;;;17.07;70.46;99201.25;5066071;28;40598;-77
2021/06/11 04:56:11;;;;;;;1.00;0.90;;;;;;;17.10;70.50;99201.00;5049502;28;41983;-77
2021/06/11 04:58:40;;;;;;;1.40;1.20;;;;;;;17.27;70.17;99211.16;5050478;28;42457;-76
2021/06/11 05:01:09;;;;;;;1.30;0.87;;;;;;;17.37;69.94;99214.75;5049376;28;42399;-78
2021/06/11 05:03:36;;;;;;;0.97;0.87;;;;;;;17.47;69.88;99215.66;5050512;28;39937;-77
2021/06/11 05:06:05;;;;;;;1.03;1.03;;;;;;;17.56;69.82;99214.88;5062407;28;40917;-74
2021/06/11 05:08:32;;;;;;;0.93;0.83;;;;;;;17.69;69.69;99219.19;5068015;28;42471;-79
2021/06/11 05:11:02;;;;;;;0.97;0.90;;;;;;;17.79;69.43;99220.13;5069266;28;42206;-77
2021/06/11 05:13:29;;;;;;;1.20;1.10;;;;;;;17.88;69.71;99219.34;5068190;28;40689;-74
2021/06/11 05:15:56;;;;;;;1.43;1.33;;;;;;;18.03;69.35;99226.03;5069616;28;42430;-81
2021/06/11 05:18:26;;;;;;;1.37;1.03;;;;;;;18.14;69.19;99222.41;5070298;28;43479;-77
2021/06/11 05:20:53;;;;;;;0.80;0.80;;;;;;;18.18;68.99;99216.63;5068877;28;42526;-81
2021/06/11 05:23:21;;;;;;;1.47;1.37;;;;;;;18.34;69.01;99215.28;5095374;28;39064;-76
2021/06/11 05:25:49;;;;;;;0.97;0.97;;;;;;;18.45;69.07;99223.22;5066195;28;41743;-81
2021/06/11 05:28:20;;;;;;;1.50;1.13;;;;;;;18.55;68.90;99216.91;5068185;28;42940;-78
2021/06/11 05:30:48;;;;;;;0.90;0.87;;;;;;;18.69;68.86;99221.06;5069880;28;41832;-84
2021/06/11 05:33:15;;;;;;;1.23;1.13;;;;;;;18.78;68.58;99225.63;5064647;28;41420;-81
2021/06/11 05:35:42;;;;;;;1.07;1.07;;;;;;;18.88;68.58;99226.47;5068302;28;41797;-83
2021/06/11 05:38:11;;;;;;;1.40;1.30;;;;;;;18.98;68.17;99224.66;5068199;28;43569;-80
2021/06/11 05:40:39;;;;;;;0.77;0.77;;;;;;;19.06;68.19;99228.44;5080027;28;42338;-74
2021/06/11 05:43:07;;;;;;;1.00;0.83;;;;;;;19.15;68.12;99227.63;5070747;28;39582;-75
2021/06/11 05:45:36;;;;;;;0.90;0.90;;;;;;;19.25;68.02;99223.09;5070357;28;42295;-84
2021/06/11 05:48:04;;;;;;;1.00;0.90;;;;;;;19.33;67.72;99213.34;5069851;28;42408;-81
2021/06/11 05:50:32;;;;;;;1.60;1.13;;;;;;;19.52;67.77;99231.31;5086263;28;41303;-81
2021/06/11 05:53:00;;;;;;;1.20;1.10;;;;;;;19.89;66.87;99234.06;5073248;28;39927;-75
2021/06/11 05:55:27;;;;;;;2.50;1.73;;;;;;;20.33;65.43;99243.25;5070036;28;43902;-79
2021/06/11 05:57:55;;;;;;;2.03;1.83;;;;;;;20.65;64.03;99239.28;5069586;28;42797;-80
2021/06/11 06:00:23;;;;;;;2.83;2.33;;;;;;;20.77;64.11;99240.81;5068057;28;42046;-75
2021/06/11 06:02:51;;;;;;;2.27;1.50;;;;;;;20.79;64.41;99241.47;5068829;28;38247;-79
2021/06/11 06:05:19;;;;;;;2.00;1.47;;;;;;;20.79;64.14;99231.56;5101033;28;41674;-78
2021/06/11 06:07:46;;;;;;;1.50;1.40;;;;;;;20.80;64.47;99233.25;5067979;28;42645;-79
2021/06/11 06:10:14;;;;;;;2.20;2.00;;;;;;;20.83;64.36;99239.34;5068101;28;42183;-78
2021/06/11 06:12:41;;;;;;;1.37;1.20;;;;;;;20.89;64.55;99239.59;5067727;28;39995;-78
2021/06/11 06:15:08;;;;;;;1.97;1.77;;;;;;;20.97;64.91;99236.97;5069260;28;40682;-76
2021/06/11 06:17:35;;;;;;;1.60;1.50;;;;;;;21.10;64.36;99233.91;5069736;28;43330;-79
2021/06/11 06:20:09;;;;;;;3.00;1.40;;;;;;;21.33;63.69;99237.00;5069233;28;42129;-81
2021/06/11 06:22:36;;;;;;;1.73;1.57;;;;;;;21.56;62.58;99242.75;5067471;28;41534;-81
2021/06/11 06:25:06;;;;;;;1.77;1.67;;;;;;;21.65;62.45;99237.28;5067233;28;41856;-83
2021/06/11 06:27:34;;;;;;;1.97;1.80;;;;;;;21.78;61.92;99239.56;5068677;28;43232;-84
2021/06/11 06:30:02;;;;;;;1.37;1.27;;;;;;;21.81;61.82;99234.72;5068559;28;42217;-83
2021/06/11 06:32:30;;;;;;;2.07;1.50;;;;;;;21.89;61.65;99239.28;5068257;28;39930;-80
2021/06/11 06:34:57;;;;;;;5.23;2.43;;;;;;;21.97;61.40;99242.06;5068573;28;42434;-84
2021/06/11 06:37:27;;;;;;;1.30;1.20;;;;;;;22.12;60.72;99242.38;5069652;28;43008;-84
2021/06/11 06:39:54;;;;;;;1.87;1.70;;;;;;;22.30;60.66;99243.13;5067169;28;42267;-85
2021/06/11 06:42:21;;;;;;;1.30;1.20;;;;;;;22.34;60.64;99225.63;5084708;28;39064;-85
2021/06/11 06:44:49;;;;;;;1.33;1.13;;;;;;;22.54;60.30;99237.84;5050262;28;40686;-75
2021/06/11 06:47:16;;;;;;;1.13;1.03;;;;;;;22.72;59.91;99236.91;5084449;28;44048;-82
2021/06/11 06:49:43;;;;;;;1.20;1.10;;;;;;;22.91;59.17;99245.59;5067764;28;42295;-79
2021/06/11 06:52:11;;;;;;;1.97;1.50;;;;;;;23.02;58.88;99247.13;5066823;28;40036;-80
2021/06/11 06:54:41;;;;;;;1.53;1.37;;;;;;;23.15;58.16;99244.78;5084713;28;40079;-79
2021/06/11 06:57:09;;;;;;;1.03;1.03;;;;;;;23.29;57.91;99240.59;5050737;28;41407;-79
2021/06/11 06:59:36;;;;;;;1.37;1.27;;;;;;;23.48;57.36;99240.28;5050669;28;40844;-79
2021/06/11 07:02:04;;;;;;;1.07;0.93;;;;;;;23.81;57.24;99241.13;5051131;28;38908;-84
2021/06/11 07:04:31;;;;;;;2.03;1.87;;;;;;;24.36;54.99;99239.53;5067161;28;41764;-82
2021/06/11 07:06:58;;;;;;;1.60;1.50;;;;;;;25.19;53.80;99250.66;5069485;28;43218;-87
2021/06/11 07:09:26;;;;;;;1.60;1.47;;;;;;;25.64;52.50;99247.13;5049173;28;42334;-83
2021/06/11 07:11:55;;;;;;;1.40;1.30;;;;;;;25.78;51.19;99259.91;5071195;28;41084;-74
2021/06/11 07:14:23;;;;;;;3.43;1.67;;;;;;;25.55;51.71;99256.34;5070215;28;41749;-75
2021/06/11 07:16:51;;;;;;;1.40;1.30;;;;;;;25.42;51.19;99271.34;5070559;28;42374;-76
2021/06/11 07:19:18;;;;;;;1.63;1.53;;;;;;;25.44;51.56;99259.47;5072127;28;42002;-76
2021/06/11 07:21:45;;;;;;;1.27;1.17;;;;;;;25.51;50.88;99263.13;5070804;28;40722;-88
2021/06/11 07:24:13;;;;;;;0.80;0.80;;;;;;;25.64;50.54;99260.69;5069960;28;41867;-85
2021/06/11 07:26:40;;;;;;;1.33;1.23;;;;;;;26.19;49.82;99264.94;5072286;28;42518;-81
2021/06/11 07:29:08;;;;;;;3.13;1.43;;;;;;;27.50;46.77;99282.13;5070458;28;42311;-78
2021/06/11 07:31:36;;;;;;;1.17;1.07;;;;;;;28.81;43.69;99298.72;5071821;28;39607;-84
2021/06/11 07:34:03;;;;;;;1.40;1.30;;;;;;;29.78;42.40;99303.06;5071085;28;41699;-77
2021/06/11 07:36:30;;;;;;;1.03;1.00;;;;;;;30.27;42.12;99287.13;5071319;28;42696;-80
2021/06/11 07:38:57;;;;;;;1.47;1.37;;;;;;;30.62;41.00;99300.53;5070149;28;42055;-88
2021/06/11 07:41:25;;;;;;;1.43;1.30;;;;;;;30.77;39.18;99298.41;5072601;28;40724;-82
2021/06/11 07:43:53;;;;;;;0.80;0.80;;;;;;;31.54;38.45;99305.63;5071526;28;41598;-80
2021/06/11 07:46:22;;;;;;;1.40;1.30;;;;;;;32.46;38.12;99302.22;5072015;28;43457;-78
2021/06/11 07:48:49;;;;;;;2.60;2.40;;;;;;;33.60;37.04;99308.06;5069111;28;41983;-82
2021/06/11 07:51:18;;;;;;;1.73;1.63;;;;;;;34.88;35.11;99320.06;5069859;28;39839;-78
2021/06/11 07:53:45;;;;;;;1.63;1.53;;;;;;;36.18;33.23;99324.00;5071098;28;42710;-78
2021/06/11 07:56:12;;;;;;;1.50;1.40;;;;;;;37.34;32.08;99327.69;5053751;28;41972;-83
2021/06/11 07:58:40;;;;;;;1.53;1.43;;;;;;;38.35;29.74;99334.22;5070236;28;41174;-83
2021/06/11 08:01:07;;;;;;;1.57;1.47;;;;;;;38.95;28.67;99332.16;5054045;28;41035;-85
2021/06/11 08:03:35;;;;;;;2.07;1.97;;;;;;;38.92;27.86;99341.00;5071043;28;44182;-89
2021/06/11 08:06:03;;;;;;;1.50;1.40;;;;;;;37.98;29.79;99323.09;5070467;28;43173;-81
2021/06/11 08:08:30;;;;;;;1.60;1.50;;;;;;;36.81;30.44;99317.28;5071131;28;42149;-79
2021/06/11 08:10:57;;;;;;;1.43;1.33;;;;;;;36.06;30.67;99314.97;5087895;28;39311;-84
2021/06/11 08:13:24;;;;;;;1.87;1.77;;;;;;;36.09;30.59;99320.00;5069517;28;41227;-85
2021/06/11 08:15:51;;;;;;;1.40;1.30;;;;;;;36.97;30.92;99305.34;5069934;28;42392;-84
2021/06/11 08:18:19;;;;;;;1.33;1.27;;;;;;;38.17;29.37;99308.91;5071496;28;42931;-80
2021/06/11 08:20:48;;;;;;;1.52;1.42;;;;;;;39.42;26.85;99332.97;5069413;28;39711;-81
2021/06/11 08:23:15;;;;;;;1.77;1.67;;;;;;;40.10;25.65;99343.94;5086092;28;42131;-82
2021/06/11 08:25:42;;;;;;;1.58;1.48;;;;;;;40.59;26.88;99316.44;5070012;28;42404;-85
2021/06/11 08:28:09;;;;;;;1.40;1.30;;;;;;;40.82;25.14;99318.63;5069574;28;42029;-85
2021/06/11 08:30:37;;;;;;;2.28;2.08;;;;;;;40.64;25.72;99333.09;5069396;28;39738;-82
2021/06/11 08:33:06;;;;;;;1.15;1.15;;;;;;;40.11;26.09;99324.22;5069227;28;41640;-74
2021/06/11 08:35:34;;;;;;;1.85;1.73;;;;;;;39.51;26.77;99319.41;5071169;28;43374;-88
2021/06/11 08:38:02;;;;;;;1.45;1.35;;;;;;;39.10;27.47;99308.16;5068569;28;42898;-77
2021/06/11 08:40:30;;;;;;;1.07;1.07;;;;;;;38.79;27.76;99301.63;5069576;28;39601;-90
2021/06/11 08:42:57;;;;;;;1.40;1.30;;;;;;;38.96;27.26;99308.88;5087926;28;40596;-80
2021/06/11 08:45:24;;;;;;;1.33;1.33;;;;;;;39.55;27.18;99303.91;5080501;28;41718;-76
2021/06/11 08:47:54;;;;;;;1.63;1.52;;;;;;;40.54;25.30;99327.56;5087031;28;41255;-81
2021/06/11 08:50:26;;;;;;;1.60;1.50;;;;;;;41.71;23.85;99329.94;5085065;28;39835;-80
2021/06/11 08:52:54;;;;;;;1.77;1.67;;;;;;;42.61;23.71;99322.00;5053154;28;41886;-82
2021/06/11 08:55:23;;;;;;;1.60;1.50;;;;;;;43.34;21.87;99339.31;5069895;28;42484;-83
2021/06/11 08:57:50;;;;;;;1.25;1.23;;;;;;;43.94;21.38;99344.31;5071366;28;42056;-83
2021/06/11 09:00:19;;;;;;;1.25;1.25;;;;;;;44.12;20.43;99339.91;5070639;28;39709;-75
2021/06/11 09:03:10;;;;;;;1.50;1.40;;;;;;;44.26;20.37;99346.34;5052620;28;41417;-83
2021/06/11 09:05:38;;;;;;;1.83;1.73;;;;;;;44.06;20.97;99341.94;5070587;28;42680;-81
2021/06/11 09:08:17;;;;;;;1.70;1.60;;;;;;;43.93;21.36;99331.50;5069576;28;42035;-74
2021/06/11 09:10:48;;;;;;;1.83;1.73;;;;;;;43.87;20.98;99327.97;5069244;28;39945;-76
2021/06/11 09:13:23;;;;;;;1.55;1.45;;;;;;;44.12;21.15;99339.91;5067862;28;40706;-87
2021/06/11 09:15:52;;;;;;;2.05;1.90;;;;;;;44.60;21.82;99324.53;5070532;28;42390;-82
2021/06/11 09:18:22;;;;;;;2.00;1.90;;;;;;;45.05;19.68;99339.59;5068152;28;42701;-81
2021/06/11 09:20:50;;;;;;;1.45;1.35;;;;;;;45.22;19.42;99346.56;5070205;28;40663;-79
2021/06/11 09:23:19;;;;;;;1.60;1.50;;;;;;;45.62;20.13;99328.91;5070820;28;41674;-79
2021/06/11 09:25:49;;;;;;;1.45;1.35;;;;;;;45.68;18.58;99344.44;5068719;28;42687;-83
2021/06/11 09:28:18;;;;;;;1.42;1.33;;;;;;;45.94;19.05;99333.47;5084874;28;42632;-79
2021/06/11 09:30:51;;;;;;;1.70;1.60;;;;;;;46.54;18.59;99335.88;5069821;28;39558;-83
2021/06/11 09:33:20;;;;;;;1.88;1.77;;;;;;;46.90;17.33;99344.16;5070425;28;41769;-79
2021/06/11 09:35:49;;;;;;;1.65;1.55;;;;;;;46.70;17.46;99331.56;5069554;28;42875;-83
2021/06/11 09:38:22;;;;;;;1.50;1.40;;;;;;;45.52;18.99;99326.31;5083191;28;41599;-84
2021/06/11 09:41:07;;;;;;;2.38;2.17;;;;;;;43.85;20.15;99318.25;5068954;28;40889;-79
2021/06/11 09:43:34;;;;;;;1.73;1.63;;;;;;;43.02;21.25;99316.00;5068236;28;41564;-81
2021/06/11 09:46:04;;;;;;;1.50;1.40;;;;;;;43.06;21.82;99303.13;5069778;28;42482;-84
2021/06/11 09:48:40;;;;;;;1.55;1.45;;;;;;;43.91;20.83;99311.41;5084953;28;41513;-76
2021/06/11 09:51:14;;;;;;;1.55;1.45;;;;;;;45.09;19.96;99309.88;5051286;28;39598;-79
2021/06/11 09:53:42;;;;;;;1.88;1.77;;;;;;;45.96;18.57;99330.38;5069541;28;41526;-80
2021/06/11 09:56:20;;;;;;;1.42;1.33;;;;;;;46.47;17.71;99327.13;5069502;28;43415;-77
2021/06/11 09:58:48;;;;;;;1.73;1.63;;;;;;;46.73;17.51;99325.31;5069510;28;42205;-79
2021/06/11 10:01:16;;;;;;;2.63;1.55;;;;;;;46.63;18.31;99319.09;5084960;28;39883;-79
2021/06/11 10:03:46;;;;;;;1.33;1.33;;;;;;;46.09;18.80;99318.28;5050931;28;40678;-77
2021/06/11 10:06:15;;;;;;;2.85;2.65;;;;;;;45.20;19.36;99304.09;5069655;28;42109;-78
2021/06/11 10:08:45;;;;;;;2.03;1.92;;;;;;;44.37;19.28;99304.00;5063587;28;42000;-81
2021/06/11 10:11:14;;;;;;;1.58;1.48;;;;;;;43.87;20.05;99296.44;5048264;28;38914;-77
2021/06/11 10:13:44;;;;;;;1.87;1.77;;;;;;;42.06;21.68;99281.56;5038110;28;40890;-78
2021/06/11 10:16:13;;;;;;;1.70;1.60;;;;;;;40.47;22.98;99277.03;5066719;28;42487;-79
2021/06/11 10:18:40;;;;;;;1.80;1.70;;;;;;;39.90;24.26;99272.63;5066057;28;42142;-78
2021/06/11 10:21:09;;;;;;;1.60;1.50;;;;;;;39.58;24.13;99281.16;5067634;28;40015;-78
2021/06/11 10:23:38;;;;;;;1.87;1.77;;;;;;;39.11;24.54;99275.75;5068178;28;42077;-79
2021/06/11 10:26:08;;;;;;;1.63;1.40;;;;;;;38.69;24.37;99265.56;5069003;28;43436;-79
2021/06/11 10:28:39;;;;;;;2.00;1.90;;;;;;;38.37;24.99;99270.31;5066554;28;42697;-76
2021/06/11 10:31:11;;;;;;;1.90;1.80;;;;;;;38.24;24.32;99281.84;5066649;28;41618;-77
2021/06/11 10:33:59;;;;;;;2.07;1.90;;;;;;;37.77;24.39;99265.94;5068976;28;41635;-79
2021/06/11 10:36:40;;;;;;;2.00;1.90;;;;;;;37.52;26.01;99258.22;5067251;28;42399;-78
2021/06/11 10:39:27;;;;;;;1.70;1.60;;;;;;;37.63;28.25;99231.53;5068368;28;42360;-78
2021/06/11 10:42:07;;;;;;;1.63;1.53;;;;;;;37.69;26.77;99241.56;5067934;28;39685;-77
2021/06/11 10:44:45;;;;;;;1.67;1.57;;;;;;;37.64;24.42;99255.31;5067028;28;40671;-77
2021/06/11 10:47:35;;;;;;;1.53;1.43;;;;;;;37.40;24.77;99258.38;5067111;28;43603;-79
2021/06/11 10:50:13;;;;;;;2.73;2.50;;;;;;;36.69;25.21;99257.53;5047878;28;43494;-76
2021/06/11 10:52:45;;;;;;;7.10;6.40;;;;;;;36.21;26.10;99246.28;5087935;28;39072;-79
2021/06/11 10:55:51;;;;;;;2.53;2.33;;;;;;;36.21;28.10;99235.25;5070772;28;41895;-76
2021/06/11 10:58:24;;;;;;;1.63;1.53;;;;;;;36.13;27.75;99230.97;5073338;28;42751;-83
2021/06/11 11:00:51;;;;;;;1.90;1.80;;;;;;;36.08;27.51;99230.09;5071481;28;42165;-81
2021/06/11 11:03:38;;;;;;;1.90;1.80;;;;;;;36.06;30.71;99199.16;5071993;28;40186;-79
2021/06/11 11:06:32;;;;;;;1.53;1.47;;;;;;;36.29;29.87;99210.84;5070687;28;41882;-81
2021/06/11 11:09:02;;;;;;;1.57;1.47;;;;;;;36.34;28.57;99219.22;5053938;28;41730;-79
2021/06/11 11:11:33;;;;;;;1.80;1.70;;;;;;;36.24;26.97;99209.91;5053196;28;42392;-78
2021/06/11 11:14:02;;;;;;;1.83;1.73;;;;;;;36.26;28.47;99200.31;5070161;28;39751;-80
2021/06/11 11:16:34;;;;;;;2.10;2.00;;;;;;;36.20;27.99;99211.50;5071070;28;40070;-83
2021/06/11 11:19:05;;;;;;;1.70;1.60;;;;;;;35.97;27.82;99207.88;5053286;28;42208;-78
2021/06/11 11:21:34;;;;;;;2.13;2.03;;;;;;;35.91;28.93;99183.22;5104406;28;41489;-84
2021/06/11 11:24:05;;;;;;;1.97;1.70;;;;;;;36.08;27.59;99203.34;5069925;28;41065;-75
2021/06/11 11:26:44;;;;;;;2.00;1.90;;;;;;;36.09;28.07;99191.22;5096579;28;40643;-74
2021/06/11 11:29:13;;;;;;;1.60;1.50;;;;;;;36.13;24.56;99213.59;5081622;28;42987;-77
2021/06/11 11:31:42;;;;;;;1.60;1.50;;;;;;;36.28;26.24;99197.31;5082675;28;42571;-75
2021/06/11 11:34:11;;;;;;;2.33;2.13;;;;;;;36.47;26.78;99198.69;5098735;28;39701;-74
2021/06/11 11:36:39;;;;;;;1.70;1.60;;;;;;;36.54;25.87;99192.97;5084246;28;42169;-77
2021/06/11 11:39:07;;;;;;;1.70;1.60;;;;;;;36.58;24.93;99208.75;5084655;28;42725;-75
2021/06/11 11:41:35;;;;;;;1.83;1.73;;;;;;;36.55;24.40;99198.22;5083148;28;42235;-77
2021/06/11 11:44:03;;;;;;;2.10;2.00;;;;;;;36.59;27.96;99180.09;5086037;28;40360;-83
2021/06/11 11:46:31;;;;;;;1.83;1.73;;;;;;;37.31;27.99;99163.25;5085858;28;43236;-78